Time;durP1;ratioP1;P1;durP2;ratioP2;P2;SDS_P1;SDS_P2;PMS_P1;PMS_P2;Temp;Humidity;BMP_temperature;BMP_pressure;BME280_temperature;BME280_humidity;BME280_pressure;Samples;Min_cycle;Max_cycle;Signal;HPM_P1;HPM_P2
2024/01/27 00:01:38;;;;;;;6.37;2.73;;;;;;;4.54;50.14;95349.09;5016506;28;20234;-71
2024/01/27 00:04:04;;;;;;;4.97;2.07;;;;;;;4.70;49.79;95341.03;5012037;28;20237;-71
2024/01/27 00:06:29;;;;;;;8.20;2.47;;;;;;;4.82;49.72;95335.78;5029419;28;20227;-71
2024/01/27 00:08:55;;;;;;;6.43;2.47;;;;;;;4.72;49.32;95334.78;5012703;28;20297;-72
2024/01/27 00:11:20;;;;;;;3.13;2.20;;;;;;;4.85;49.16;95340.78;5026901;28;20210;-72
2024/01/27 00:13:46;;;;;;;5.37;2.30;;;;;;;4.79;49.25;95350.81;5010917;28;20217;-72
2024/01/27 00:16:12;;;;;;;5.17;2.40;;;;;;;4.77;49.11;95343.09;5012593;28;20265;-72
2024/01/27 00:18:38;;;;;;;3.43;2.00;;;;;;;4.82;49.38;95340.19;5012831;28;20227;-72
2024/01/27 00:21:06;;;;;;;7.57;2.40;;;;;;;4.76;49.14;95333.63;5000286;28;20223;-71
2024/01/27 00:23:32;;;;;;;8.77;2.87;;;;;;;4.71;48.99;95324.47;4992170;28;20215;-71
2024/01/27 00:25:58;;;;;;;6.37;2.43;;;;;;;4.67;49.13;95328.22;5011000;28;20203;-71
2024/01/27 00:28:23;;;;;;;3.27;1.90;;;;;;;4.74;49.38;95321.66;5011546;28;20250;-71
2024/01/27 00:30:49;;;;;;;6.37;2.50;;;;;;;4.90;48.67;95327.44;5012231;28;20223;-71
2024/01/27 00:33:14;;;;;;;6.80;2.40;;;;;;;4.82;49.05;95317.56;5011685;28;20230;-71
2024/01/27 00:35:40;;;;;;;5.20;2.20;;;;;;;4.75;48.99;95325.91;5013784;28;20187;-71
2024/01/27 00:38:05;;;;;;;4.60;2.00;;;;;;;4.79;48.97;95325.59;5015788;28;20183;-72
2024/01/27 00:40:31;;;;;;;4.50;2.53;;;;;;;4.92;49.06;95322.09;5010062;28;20222;-72
2024/01/27 00:42:56;;;;;;;6.53;2.40;;;;;;;4.88;48.96;95321.50;5012417;28;20234;-72
2024/01/27 00:45:27;;;;;;;5.47;2.30;;;;;;;4.92;48.68;95327.31;5009492;28;20218;-72
2024/01/27 00:47:52;;;;;;;4.80;2.40;;;;;;;4.86;48.92;95332.03;5010563;28;20229;-72
2024/01/27 00:50:18;;;;;;;3.90;2.20;;;;;;;4.98;48.65;95319.06;5029473;28;20277;-72
2024/01/27 00:52:43;;;;;;;3.70;2.33;;;;;;;4.94;48.71;95325.44;5011610;28;20253;-72
2024/01/27 00:55:09;;;;;;;4.53;2.40;;;;;;;4.83;49.09;95319.22;5011574;28;20218;-72
2024/01/27 00:57:40;;;;;;;6.90;2.40;;;;;;;4.93;48.80;95315.97;5014815;28;20310;-72
2024/01/27 01:00:07;;;;;;;5.63;2.43;;;;;;;4.96;48.40;95311.34;5012686;28;20238;-72
2024/01/27 01:02:32;;;;;;;5.93;2.20;;;;;;;4.82;48.79;95309.75;5011695;28;20190;-72
2024/01/27 01:04:58;;;;;;;5.43;2.57;;;;;;;4.90;49.08;95314.41;5012504;28;20221;-71
2024/01/27 01:07:23;;;;;;;4.50;2.00;;;;;;;4.89;48.87;95319.72;5025979;28;20231;-72
2024/01/27 01:09:48;;;;;;;4.27;2.00;;;;;;;4.81;48.89;95305.47;5014798;28;20214;-71
2024/01/27 01:12:15;;;;;;;2.97;2.00;;;;;;;4.90;49.27;95310.97;5011714;28;20365;-72
2024/01/27 01:14:40;;;;;;;6.53;2.73;;;;;;;4.74;49.71;95317.28;5012054;28;20187;-72
2024/01/27 01:17:06;;;;;;;5.67;2.20;;;;;;;4.79;49.81;95306.53;5026439;28;20209;-72
2024/01/27 01:19:31;;;;;;;4.43;2.30;;;;;;;4.85;49.93;95325.16;5025020;28;20230;-72
2024/01/27 01:21:56;;;;;;;6.43;2.57;;;;;;;4.82;50.27;95314.94;5010649;28;20223;-71
2024/01/27 01:24:22;;;;;;;6.47;2.57;;;;;;;4.97;50.25;95327.81;5010681;28;20222;-72
2024/01/27 01:26:48;;;;;;;5.70;2.27;;;;;;;5.01;50.25;95318.84;5011272;28;20227;-72
2024/01/27 01:29:13;;;;;;;5.10;2.60;;;;;;;5.05;49.95;95315.06;5015859;28;20189;-73
2024/01/27 01:31:42;;;;;;;8.63;2.87;;;;;;;5.00;50.47;95311.97;5006709;28;20222;-73
2024/01/27 01:34:07;;;;;;;5.87;2.50;;;;;;;5.07;50.08;95311.41;5027856;28;20232;-73
2024/01/27 01:36:33;;;;;;;6.17;2.40;;;;;;;5.19;49.76;95312.31;5011954;28;20211;-74
2024/01/27 01:38:58;;;;;;;8.20;2.50;;;;;;;5.09;49.78;95306.91;5011604;28;20222;-74
2024/01/27 01:41:24;;;;;;;4.70;2.33;;;;;;;5.12;49.30;95292.00;5011420;28;20182;-73
2024/01/27 01:43:49;;;;;;;8.47;2.60;;;;;;;5.07;49.05;95300.16;5011101;28;20330;-73
2024/01/27 01:46:15;;;;;;;6.23;2.57;;;;;;;4.98;49.64;95303.44;5011483;28;20302;-73
2024/01/27 01:48:40;;;;;;;5.07;2.30;;;;;;;5.03;49.34;95299.56;5013841;28;20211;-71
2024/01/27 01:51:06;;;;;;;7.53;2.40;;;;;;;5.09;49.06;95293.06;5014660;28;20254;-71
2024/01/27 01:53:31;;;;;;;4.77;2.23;;;;;;;5.09;49.25;95298.28;5010636;28;20187;-71
2024/01/27 01:55:57;;;;;;;6.27;2.33;;;;;;;5.16;48.84;95298.66;5006964;28;20199;-71
2024/01/27 01:58:23;;;;;;;7.23;2.63;;;;;;;5.18;48.76;95305.41;5011842;28;20219;-72
2024/01/27 02:00:49;;;;;;;2.87;2.20;;;;;;;5.02;49.30;95294.44;5014753;28;20221;-72
2024/01/27 02:03:14;;;;;;;5.83;2.77;;;;;;;4.91;49.49;95292.59;5013033;28;20211;-73
2024/01/27 02:05:40;;;;;;;5.70;2.73;;;;;;;4.94;49.47;95292.38;5009236;28;20182;-72
2024/01/27 02:08:06;;;;;;;6.80;2.43;;;;;;;5.00;49.40;95293.75;5011683;28;20190;-72
2024/01/27 02:10:37;;;;;;;4.00;2.20;;;;;;;5.03;48.82;95285.69;5010975;28;20349;-72
2024/01/27 02:13:19;;;;;;;5.47;2.30;;;;;;;5.12;48.33;95271.16;5011367;28;20214;-72
2024/01/27 02:15:45;;;;;;;6.23;2.50;;;;;;;5.09;48.39;95260.00;5011005;28;20226;-72
2024/01/27 02:18:11;;;;;;;6.20;2.33;;;;;;;5.12;48.03;95253.72;5011320;28;20219;-72
2024/01/27 02:20:37;;;;;;;6.70;2.70;;;;;;;5.27;47.85;95259.59;4995087;28;20191;-71
2024/01/27 02:23:04;;;;;;;4.37;2.27;;;;;;;5.17;47.54;95262.06;5012747;28;20187;-72
2024/01/27 02:25:33;;;;;;;4.50;2.10;;;;;;;5.14;46.88;95267.50;5010505;28;20268;-72
2024/01/27 02:27:59;;;;;;;4.50;2.10;;;;;;;5.19;46.84;95265.38;5010818;28;20222;-72
2024/01/27 02:30:25;;;;;;;3.70;2.20;;;;;;;5.16;46.83;95268.22;5023542;28;20223;-72
2024/01/27 02:32:51;;;;;;;4.50;2.10;;;;;;;5.10;46.46;95266.03;5004796;28;20298;-72
2024/01/27 02:35:16;;;;;;;6.30;2.53;;;;;;;5.14;45.88;95257.06;5009994;28;20175;-72
2024/01/27 02:37:42;;;;;;;5.13;2.17;;;;;;;5.20;46.16;95251.41;5016662;28;20218;-72
2024/01/27 02:40:09;;;;;;;4.00;2.30;;;;;;;5.26;46.07;95258.75;5017560;28;20230;-73
2024/01/27 02:42:35;;;;;;;5.03;2.50;;;;;;;5.33;45.95;95266.13;5029857;28;20238;-73
2024/01/27 02:45:02;;;;;;;8.17;2.63;;;;;;;5.38;46.05;95269.25;5029815;28;20316;-73
2024/01/27 02:47:27;;;;;;;5.40;2.10;;;;;;;5.37;46.22;95267.56;5015285;28;20206;-72
2024/01/27 02:49:53;;;;;;;2.87;2.03;;;;;;;5.39;46.02;95263.06;5016008;28;20194;-72
2024/01/27 02:52:18;;;;;;;4.10;2.30;;;;;;;5.36;46.04;95260.69;5015942;28;20219;-71
2024/01/27 02:54:44;;;;;;;6.23;2.10;;;;;;;5.30;46.26;95260.19;5014318;28;20225;-72
2024/01/27 02:57:09;;;;;;;5.33;2.47;;;;;;;5.36;46.31;95263.31;5027964;28;20238;-72
2024/01/27 02:59:35;;;;;;;4.17;2.83;;;;;;;5.29;46.79;95255.09;5012521;28;20262;-72
2024/01/27 03:02:00;;;;;;;7.50;2.70;;;;;;;5.31;47.45;95263.63;5012089;28;20191;-72
2024/01/27 03:04:26;;;;;;;5.80;3.03;;;;;;;5.36;47.29;95268.50;5015207;28;20215;-72
2024/01/27 03:06:51;;;;;;;5.83;3.00;;;;;;;5.32;47.69;95275.75;5013204;28;20230;-73
2024/01/27 03:09:18;;;;;;;8.17;3.50;;;;;;;5.25;48.26;95285.78;5010295;28;20257;-73
2024/01/27 03:11:43;;;;;;;8.30;3.63;;;;;;;5.31;48.34;95289.72;5016020;28;20218;-73
2024/01/27 03:14:10;;;;;;;7.23;4.77;;;;;;;5.17;48.69;95295.94;5012668;28;20205;-73
2024/01/27 03:16:36;;;;;;;7.20;4.23;;;;;;;5.11;49.03;95283.34;5015528;28;20268;-73
2024/01/27 03:19:01;;;;;;;7.97;4.10;;;;;;;5.05;49.40;95278.56;5027108;28;20223;-72
2024/01/27 03:21:27;;;;;;;7.13;3.73;;;;;;;5.09;49.36;95286.06;5013266;28;20234;-73
2024/01/27 03:23:53;;;;;;;5.80;2.77;;;;;;;5.02;48.24;95268.38;5025310;28;20280;-74
2024/01/27 03:26:18;;;;;;;6.47;2.10;;;;;;;5.15;47.16;95263.09;5027592;28;20203;-72
2024/01/27 03:28:43;;;;;;;3.93;1.60;;;;;;;5.26;47.56;95263.97;5018287;28;20223;-73
2024/01/27 03:31:09;;;;;;;3.20;1.90;;;;;;;5.21;48.23;95268.72;5009955;28;20211;-72
2024/01/27 03:33:34;;;;;;;5.50;1.70;;;;;;;5.25;49.34;95275.34;5013226;28;20219;-72
2024/01/27 03:36:00;;;;;;;4.23;2.00;;;;;;;5.32;49.18;95265.31;5013089;28;20222;-73
2024/01/27 03:38:25;;;;;;;2.83;1.40;;;;;;;5.40;50.26;95277.75;5009109;28;20190;-72
2024/01/27 03:40:50;;;;;;;3.27;1.40;;;;;;;5.34;51.86;95257.34;5012535;28;20222;-72
2024/01/27 03:43:16;;;;;;;4.00;1.60;;;;;;;5.53;52.29;95258.50;5011008;28;20238;-72
2024/01/27 03:45:41;;;;;;;4.20;1.70;;;;;;;5.44;52.96;95255.72;5010053;28;20215;-72
2024/01/27 03:48:07;;;;;;;5.03;1.80;;;;;;;5.39;53.88;95256.06;5012283;28;20218;-72
2024/01/27 03:50:32;;;;;;;3.10;1.60;;;;;;;5.49;54.36;95264.88;5010213;28;20193;-72
2024/01/27 03:52:58;;;;;;;4.40;1.63;;;;;;;5.55;54.35;95260.16;5015899;28;20216;-73
2024/01/27 03:55:24;;;;;;;2.20;1.50;;;;;;;5.57;54.64;95250.44;5025441;28;20228;-73
2024/01/27 03:57:49;;;;;;;3.33;1.60;;;;;;;5.46;55.15;95253.84;5011788;28;20222;-73
2024/01/27 04:00:15;;;;;;;3.90;1.63;;;;;;;5.34;56.05;95252.16;5017931;28;20218;-73
2024/01/27 04:02:40;;;;;;;2.67;1.20;;;;;;;5.44;56.14;95248.75;5025423;28;20183;-73
2024/01/27 04:05:06;;;;;;;3.37;1.63;;;;;;;5.48;56.82;95249.31;5013766;28;20186;-73
2024/01/27 04:07:32;;;;;;;2.87;1.83;;;;;;;5.47;56.86;95255.50;5018330;28;20255;-72
2024/01/27 04:09:57;;;;;;;2.63;1.60;;;;;;;5.42;57.22;95258.44;5012315;28;20338;-71
2024/01/27 04:12:22;;;;;;;4.13;1.90;;;;;;;5.42;57.39;95249.78;5010699;28;20215;-72
2024/01/27 04:14:48;;;;;;;4.30;1.70;;;;;;;5.42;57.15;95252.41;5029257;28;20229;-72
2024/01/27 04:17:13;;;;;;;4.27;1.93;;;;;;;5.40;57.58;95243.84;5015952;28;20213;-72
2024/01/27 04:19:39;;;;;;;4.00;2.00;;;;;;;5.33;58.21;95248.72;5008905;28;20306;-73
2024/01/27 04:22:04;;;;;;;2.73;1.80;;;;;;;5.34;58.58;95244.31;5006827;28;20219;-73
2024/01/27 04:24:30;;;;;;;3.57;1.90;;;;;;;5.24;58.18;95239.81;5013071;28;20218;-73
2024/01/27 04:26:55;;;;;;;2.57;1.70;;;;;;;5.20;58.43;95238.34;5012116;28;20230;-72
2024/01/27 04:29:20;;;;;;;4.67;1.73;;;;;;;5.24;58.65;95242.41;5012797;28;20182;-72
2024/01/27 04:31:46;;;;;;;2.53;1.53;;;;;;;5.30;58.29;95235.91;5013043;28;20223;-73
2024/01/27 04:34:11;;;;;;;5.50;1.80;;;;;;;5.29;58.83;95239.44;5016646;28;20222;-72
2024/01/27 04:36:37;;;;;;;4.70;1.93;;;;;;;5.40;58.46;95255.16;5012586;28;20221;-73
2024/01/27 04:39:04;;;;;;;4.43;1.90;;;;;;;5.46;58.21;95257.28;5017698;28;20245;-72
2024/01/27 04:41:29;;;;;;;4.37;1.97;;;;;;;5.38;58.60;95253.59;5016186;28;20254;-73
2024/01/27 04:43:56;;;;;;;4.13;1.70;;;;;;;5.39;59.15;95250.84;5028674;28;20322;-72
2024/01/27 04:46:22;;;;;;;4.23;2.23;;;;;;;5.49;58.87;95248.41;5012550;28;20289;-73
2024/01/27 04:48:47;;;;;;;3.63;1.97;;;;;;;5.45;59.80;95254.78;5014002;28;20302;-73
2024/01/27 04:51:13;;;;;;;4.13;1.70;;;;;;;5.54;59.08;95251.50;5009190;28;20253;-74
2024/01/27 04:53:38;;;;;;;5.63;2.10;;;;;;;5.53;59.21;95249.81;5012812;28;20198;-73
2024/01/27 04:56:07;;;;;;;3.07;1.93;;;;;;;5.61;59.87;95254.47;5010865;28;20338;-73
2024/01/27 04:58:34;;;;;;;6.43;2.17;;;;;;;5.56;59.76;95251.38;5009071;28;20214;-73
2024/01/27 05:00:59;;;;;;;3.20;1.70;;;;;;;5.56;60.40;95252.22;5012413;28;20243;-73
2024/01/27 05:03:24;;;;;;;5.57;1.70;;;;;;;5.56;60.76;95252.22;5028870;28;20297;-73
2024/01/27 05:05:50;;;;;;;2.53;1.60;;;;;;;5.42;61.20;95261.06;5012597;28;20313;-72
2024/01/27 05:08:15;;;;;;;3.07;1.70;;;;;;;5.46;61.19;95257.28;5013098;28;20195;-75
2024/01/27 05:10:41;;;;;;;3.17;1.70;;;;;;;5.57;61.34;95271.31;5014575;28;20223;-74
2024/01/27 05:13:06;;;;;;;2.40;1.63;;;;;;;5.61;61.65;95276.16;5012518;28;20222;-74
2024/01/27 05:15:32;;;;;;;2.90;1.77;;;;;;;5.55;61.78;95271.41;5012335;28;20257;-72
2024/01/27 05:17:57;;;;;;;3.90;1.90;;;;;;;5.44;62.32;95274.81;5026741;28;20226;-73
2024/01/27 05:20:22;;;;;;;3.37;2.00;;;;;;;5.55;62.47;95274.00;5012298;28;20186;-72
2024/01/27 05:22:48;;;;;;;4.07;1.90;;;;;;;5.56;63.52;95275.69;5007409;28;20215;-71
2024/01/27 05:25:13;;;;;;;4.40;1.80;;;;;;;5.56;63.84;95267.00;5014355;28;20219;-74
2024/01/27 05:27:39;;;;;;;5.03;1.90;;;;;;;5.57;63.79;95269.53;5012248;28;20222;-74
2024/01/27 05:30:06;;;;;;;3.63;1.73;;;;;;;5.50;64.37;95265.69;5014559;28;20219;-74
2024/01/27 05:32:32;;;;;;;2.87;1.80;;;;;;;5.51;64.22;95270.00;4992610;28;20219;-73
2024/01/27 05:34:57;;;;;;;2.80;2.30;;;;;;;5.64;64.29;95275.09;5011050;28;20252;-74
2024/01/27 05:37:23;;;;;;;3.17;2.00;;;;;;;5.44;65.67;95276.59;5009798;28;20302;-74
2024/01/27 05:39:48;;;;;;;2.47;1.87;;;;;;;5.53;64.97;95271.53;5012636;28;20226;-74
2024/01/27 05:42:13;;;;;;;2.57;2.00;;;;;;;5.47;65.72;95273.75;5024329;28;20316;-74
2024/01/27 05:44:40;;;;;;;4.80;2.33;;;;;;;5.51;66.10;95267.38;5015032;28;20325;-74
2024/01/27 05:47:06;;;;;;;5.03;2.23;;;;;;;5.60;65.95;95281.50;4998041;28;20214;-74
2024/01/27 05:49:32;;;;;;;4.10;2.70;;;;;;;5.50;66.18;95274.34;5011366;28;20238;-73
2024/01/27 05:51:57;;;;;;;3.20;2.53;;;;;;;5.40;66.65;95283.84;5012267;28;20211;-74
2024/01/27 05:54:24;;;;;;;4.37;2.33;;;;;;;5.36;67.14;95276.34;5011570;28;20218;-74
2024/01/27 05:56:50;;;;;;;4.30;2.60;;;;;;;5.34;67.45;95289.47;5012182;28;20223;-73
2024/01/27 05:59:15;;;;;;;3.70;2.47;;;;;;;5.15;68.33;95294.38;5014490;28;20190;-74
2024/01/27 06:01:41;;;;;;;2.60;2.10;;;;;;;5.38;67.66;95296.16;5008009;28;20249;-74
2024/01/27 06:04:07;;;;;;;3.43;2.33;;;;;;;5.16;68.25;95296.03;5021111;28;20219;-74
2024/01/27 06:06:32;;;;;;;4.53;2.57;;;;;;;5.18;68.49;95284.56;5009345;28;20229;-74
2024/01/27 06:08:57;;;;;;;3.83;2.53;;;;;;;5.17;68.24;95288.13;5011200;28;20222;-75
2024/01/27 06:11:26;;;;;;;4.37;3.07;;;;;;;5.00;68.61;95296.34;5012853;28;20253;-74
2024/01/27 06:13:51;;;;;;;4.80;3.07;;;;;;;5.02;69.26;95304.88;5014393;28;20223;-75
2024/01/27 06:16:20;;;;;;;3.50;2.63;;;;;;;4.99;69.02;95300.69;5031388;28;20253;-74
2024/01/27 06:18:46;;;;;;;4.93;3.00;;;;;;;4.93;68.58;95306.38;5027983;28;20310;-74
2024/01/27 06:21:11;;;;;;;4.60;3.53;;;;;;;4.98;69.20;95312.09;5014835;28;20197;-74
2024/01/27 06:23:37;;;;;;;5.33;3.47;;;;;;;4.98;69.38;95316.47;5013656;28;20297;-74
2024/01/27 06:26:09;;;;;;;4.03;3.50;;;;;;;5.08;69.34;95317.47;5010723;28;20224;-75
2024/01/27 06:28:35;;;;;;;8.93;4.37;;;;;;;5.02;69.50;95312.69;5015242;28;20219;-73
2024/01/27 06:31:02;;;;;;;5.33;4.13;;;;;;;5.02;69.27;95320.50;5015657;28;20219;-74
2024/01/27 06:33:28;;;;;;;9.67;4.00;;;;;;;5.00;69.18;95323.22;5016527;28;20183;-76
2024/01/27 06:35:53;;;;;;;5.80;4.30;;;;;;;5.11;68.91;95334.66;5013341;28;20175;-75
2024/01/27 06:38:19;;;;;;;6.07;4.43;;;;;;;5.09;68.54;95338.19;5017294;28;20223;-76
2024/01/27 06:40:44;;;;;;;5.20;3.40;;;;;;;5.13;68.87;95338.78;5012853;28;20223;-75
2024/01/27 06:43:13;;;;;;;4.67;2.23;;;;;;;5.07;68.70;95340.06;5012443;28;20231;-75
2024/01/27 06:45:38;;;;;;;4.53;1.73;;;;;;;5.24;68.52;95332.84;5024804;28;20238;-73
2024/01/27 06:48:05;;;;;;;1.43;1.30;;;;;;;5.06;68.04;95333.22;5010674;28;20179;-74
2024/01/27 06:50:31;;;;;;;2.07;1.30;;;;;;;5.28;67.96;95347.31;5015590;28;20223;-74
2024/01/27 06:52:56;;;;;;;2.40;1.17;;;;;;;5.19;67.40;95338.38;5018619;28;20230;-75
2024/01/27 06:55:22;;;;;;;2.23;1.00;;;;;;;5.31;66.92;95362.72;5025237;28;20230;-74
2024/01/27 06:57:47;;;;;;;1.87;1.10;;;;;;;5.36;66.43;95368.44;5013945;28;20221;-75
2024/01/27 07:00:14;;;;;;;1.50;1.00;;;;;;;5.42;65.73;95367.97;5014339;28;20191;-75
2024/01/27 07:02:41;;;;;;;2.77;1.10;;;;;;;5.37;65.53;95357.03;5025762;28;20268;-74
2024/01/27 07:05:07;;;;;;;2.43;1.30;;;;;;;5.44;65.87;95357.44;5026604;28;20219;-73
2024/01/27 07:07:33;;;;;;;1.13;0.90;;;;;;;5.41;64.53;95357.69;5027530;28;20234;-74
2024/01/27 07:09:58;;;;;;;2.10;1.00;;;;;;;5.30;64.79;95337.59;5011164;28;20234;-74
2024/01/27 07:12:24;;;;;;;2.43;1.40;;;;;;;5.41;64.60;95337.63;5014014;28;20183;-75
2024/01/27 07:14:49;;;;;;;2.33;1.10;;;;;;;5.53;63.54;95335.91;5014183;28;20345;-76
2024/01/27 07:17:15;;;;;;;3.77;1.43;;;;;;;5.65;63.39;95344.59;5015710;28;20215;-75
2024/01/27 07:19:40;;;;;;;2.07;1.27;;;;;;;5.41;63.14;95335.03;5029061;28;20307;-77
2024/01/27 07:22:06;;;;;;;1.43;1.07;;;;;;;5.45;63.66;95323.44;5013351;28;20308;-79
2024/01/27 07:24:31;;;;;;;2.37;1.20;;;;;;;5.48;62.82;95335.41;5015942;28;20183;-74
2024/01/27 07:27:00;;;;;;;1.90;0.97;;;;;;;5.47;62.09;95337.19;5028401;28;20333;-76
2024/01/27 07:29:26;;;;;;;1.00;0.90;;;;;;;5.26;62.97;95355.22;5012972;28;20223;-75
2024/01/27 07:31:51;;;;;;;2.53;1.30;;;;;;;5.31;62.91;95360.94;5010014;28;20227;-80
2024/01/27 07:34:17;;;;;;;1.73;1.20;;;;;;;5.48;61.99;95372.78;5014946;28;20226;-74
2024/01/27 07:36:43;;;;;;;1.43;1.10;;;;;;;5.38;62.20;95383.97;5012782;28;20309;-74
2024/01/27 07:39:09;;;;;;;1.83;1.30;;;;;;;5.36;62.02;95386.69;5015504;28;20233;-75
2024/01/27 07:41:35;;;;;;;1.40;1.20;;;;;;;5.30;60.83;95415.81;5025098;28;20227;-74
2024/01/27 07:44:11;;;;;;;2.60;1.47;;;;;;;5.18;60.67;95417.50;5007244;28;20218;-75
2024/01/27 07:46:41;;;;;;;2.60;1.60;;;;;;;5.45;59.95;95432.13;5003269;28;20238;-73
2024/01/27 07:49:08;;;;;;;1.77;1.67;;;;;;;5.38;60.31;95451.78;5010752;28;20227;-75
2024/01/27 07:51:34;;;;;;;4.37;2.03;;;;;;;5.26;59.93;95416.97;5026947;28;20242;-74
2024/01/27 07:54:00;;;;;;;1.90;1.50;;;;;;;5.24;59.42;95435.34;5012573;28;20186;-72
2024/01/27 07:56:26;;;;;;;3.77;1.70;;;;;;;5.26;59.10;95428.22;5010891;28;20242;-72
2024/01/27 07:58:51;;;;;;;2.20;1.70;;;;;;;5.41;58.69;95420.25;5011853;28;20290;-73
2024/01/27 08:01:19;;;;;;;1.87;1.63;;;;;;;5.03;58.51;95437.69;5010531;28;20283;-76
2024/01/27 08:03:44;;;;;;;2.27;1.70;;;;;;;5.04;58.54;95422.88;5008757;28;20222;-78
2024/01/27 08:06:18;;;;;;;1.73;1.57;;;;;;;5.21;58.48;95435.56;5012459;28;20211;-77
2024/01/27 08:08:48;;;;;;;2.27;1.80;;;;;;;5.26;57.54;95402.16;5010512;28;20218;-77
2024/01/27 08:11:17;;;;;;;3.90;2.00;;;;;;;5.26;57.76;95430.81;5011589;28;20211;-77
2024/01/27 08:13:43;;;;;;;2.77;2.00;;;;;;;5.26;58.20;95440.44;5028937;28;20219;-76
2024/01/27 08:16:09;;;;;;;3.73;1.80;;;;;;;5.21;58.01;95421.66;5008890;28;20218;-77
2024/01/27 08:18:42;;;;;;;3.23;2.10;;;;;;;5.12;58.46;95419.72;5027110;28;20229;-76
2024/01/27 08:21:08;;;;;;;3.10;2.27;;;;;;;5.25;58.07;95400.50;5009646;28;20183;-75
2024/01/27 08:23:33;;;;;;;1.97;1.83;;;;;;;5.29;57.38;95433.25;5010861;28;20218;-73
2024/01/27 08:25:59;;;;;;;3.47;2.00;;;;;;;5.38;57.22;95426.53;5008855;28;20277;-76
2024/01/27 08:28:25;;;;;;;2.90;1.93;;;;;;;5.51;57.16;95409.06;5010483;28;20229;-70
2024/01/27 08:30:50;;;;;;;3.80;2.07;;;;;;;5.47;56.73;95418.03;5008459;28;20289;-74
2024/01/27 08:33:16;;;;;;;3.97;2.40;;;;;;;5.53;55.72;95417.59;5006911;28;20187;-71
2024/01/27 08:35:41;;;;;;;2.77;2.07;;;;;;;5.59;55.22;95397.25;5011402;28;20202;-72
2024/01/27 08:38:08;;;;;;;3.50;1.97;;;;;;;5.62;55.24;95403.06;5008703;28;20303;-71
2024/01/27 08:40:34;;;;;;;5.03;2.00;;;;;;;5.83;54.42;95438.97;5008769;28;20243;-74
2024/01/27 08:42:59;;;;;;;2.70;2.00;;;;;;;6.02;54.50;95426.25;5024077;28;20265;-75
2024/01/27 08:45:26;;;;;;;2.90;1.93;;;;;;;6.11;54.14;95406.44;5009956;28;20191;-70
2024/01/27 08:47:51;;;;;;;2.83;1.60;;;;;;;6.03;54.47;95411.41;5010223;28;20238;-71
2024/01/27 08:50:17;;;;;;;1.97;1.70;;;;;;;6.18;54.01;95395.44;5009292;28;20222;-72
2024/01/27 08:52:42;;;;;;;2.40;1.70;;;;;;;6.34;53.37;95420.41;5010930;28;20218;-72
2024/01/27 08:55:08;;;;;;;2.63;1.90;;;;;;;6.36;52.64;95408.03;5022115;28;20223;-70
2024/01/27 08:57:33;;;;;;;5.10;1.70;;;;;;;6.16;53.24;95407.75;5007352;28;20190;-70
2024/01/27 08:59:59;;;;;;;2.10;1.70;;;;;;;6.11;53.25;95409.06;5010896;28;20187;-72
2024/01/27 09:02:24;;;;;;;2.70;1.60;;;;;;;6.21;53.60;95385.72;5008599;28;20233;-68
2024/01/27 09:04:50;;;;;;;2.20;1.67;;;;;;;6.08;53.74;95370.97;5013039;28;20329;-70
2024/01/27 09:07:16;;;;;;;2.63;1.50;;;;;;;5.97;54.32;95358.72;5008643;28;20276;-73
2024/01/27 09:09:41;;;;;;;3.23;1.70;;;;;;;6.24;53.88;95362.81;5011739;28;20234;-71
2024/01/27 09:12:07;;;;;;;1.67;1.57;;;;;;;6.31;52.99;95403.19;5024217;28;20190;-73
2024/01/27 09:14:35;;;;;;;3.83;1.77;;;;;;;6.27;52.57;95333.84;5011690;28;20222;-73
2024/01/27 09:17:01;;;;;;;2.27;1.50;;;;;;;6.23;52.55;95370.75;5010835;28;20218;-68
2024/01/27 09:19:27;;;;;;;2.03;1.73;;;;;;;6.22;52.16;95348.19;5008248;28;20198;-70
2024/01/27 09:21:53;;;;;;;1.50;1.40;;;;;;;6.10;52.56;95345.56;5007993;28;20219;-73
2024/01/27 09:24:18;;;;;;;4.37;1.90;;;;;;;6.08;52.21;95376.19;5003871;28;20218;-72
2024/01/27 09:26:44;;;;;;;1.63;1.43;;;;;;;6.19;52.43;95329.19;5010944;28;20253;-74
2024/01/27 09:29:09;;;;;;;3.60;1.47;;;;;;;6.12;52.46;95358.50;5010007;28;20195;-73
2024/01/27 09:31:35;;;;;;;1.60;1.50;;;;;;;6.13;52.45;95332.28;5009645;28;20214;-71
2024/01/27 09:34:01;;;;;;;4.70;1.47;;;;;;;6.19;52.38;95376.19;5009675;28;20226;-72
2024/01/27 09:36:28;;;;;;;1.33;1.23;;;;;;;6.24;51.69;95372.41;5008628;28;20211;-75
2024/01/27 09:38:54;;;;;;;1.67;1.30;;;;;;;6.48;51.67;95381.00;5009267;28;20281;-71
2024/01/27 09:41:20;;;;;;;2.13;1.27;;;;;;;6.67;50.94;95403.91;5008955;28;20191;-70
2024/01/27 09:43:50;;;;;;;1.43;1.33;;;;;;;6.50;51.69;95373.03;4992436;28;20239;-72
2024/01/27 09:46:16;;;;;;;1.80;1.33;;;;;;;6.96;50.45;95385.97;5012108;28;20237;-74
2024/01/27 09:48:42;;;;;;;2.67;1.50;;;;;;;7.34;49.91;95410.88;4997111;28;20230;-70
2024/01/27 09:51:09;;;;;;;3.37;1.50;;;;;;;7.16;50.03;95399.25;5024975;28;20236;-75
2024/01/27 09:53:35;;;;;;;1.70;1.30;;;;;;;6.96;50.22;95401.66;5012774;28;20226;-74
2024/01/27 09:56:03;;;;;;;3.57;1.60;;;;;;;7.00;49.98;95415.31;5029755;28;20301;-75
2024/01/27 09:58:30;;;;;;;4.33;1.60;;;;;;;6.77;50.95;95443.25;5010179;28;20223;-76
2024/01/27 10:01:00;;;;;;;1.90;1.63;;;;;;;6.81;51.04;95434.22;5011850;28;20229;-78
2024/01/27 10:03:27;;;;;;;1.13;1.03;;;;;;;6.36;51.39;95423.69;5011542;28;20219;-75
2024/01/27 10:05:55;;;;;;;1.43;1.27;;;;;;;6.37;51.99;95425.38;5013164;28;20222;-75
2024/01/27 10:08:21;;;;;;;3.03;1.70;;;;;;;6.31;52.44;95459.81;5013265;28;20200;-73
2024/01/27 10:10:47;;;;;;;2.30;1.40;;;;;;;6.32;52.06;95449.22;5015459;28;20203;-72
2024/01/27 10:13:17;;;;;;;3.07;1.17;;;;;;;6.14;52.20;95461.88;5011088;28;20226;-72
2024/01/27 10:15:42;;;;;;;2.27;1.20;;;;;;;6.19;52.53;95471.97;5012766;28;20227;-73
2024/01/27 10:18:08;;;;;;;1.87;1.33;;;;;;;6.30;52.20;95473.78;5012981;28;20253;-71
2024/01/27 10:20:34;;;;;;;2.33;1.43;;;;;;;6.13;52.92;95464.63;5012756;28;20211;-73
2024/01/27 10:23:11;;;;;;;1.20;1.10;;;;;;;5.86;53.20;95436.97;5009767;28;20190;-69
2024/01/27 10:25:40;;;;;;;2.03;1.10;;;;;;;5.72;53.79;95463.22;5027071;28;20298;-69
2024/01/27 10:28:08;;;;;;;1.57;1.23;;;;;;;5.72;53.68;95461.47;5013828;28;20322;-72
2024/01/27 10:30:34;;;;;;;1.83;1.30;;;;;;;5.83;53.29;95480.72;5011456;28;20230;-72
2024/01/27 10:32:59;;;;;;;2.10;1.60;;;;;;;5.79;53.70;95468.84;5015906;28;20234;-75
2024/01/27 10:35:25;;;;;;;1.30;1.20;;;;;;;5.73;53.49;95457.06;5015729;28;20215;-68
2024/01/27 10:37:54;;;;;;;2.73;1.50;;;;;;;5.72;54.02;95481.47;5016657;28;20267;-72
2024/01/27 10:40:20;;;;;;;2.90;1.27;;;;;;;5.51;54.61;95481.25;5014321;28;20223;-74
2024/01/27 10:42:46;;;;;;;2.07;1.57;;;;;;;5.65;54.66;95473.28;5012768;28;20231;-74
2024/01/27 10:45:12;;;;;;;1.73;1.20;;;;;;;5.59;54.48;95491.97;5030266;28;20309;-71
2024/01/27 10:47:39;;;;;;;2.57;1.10;;;;;;;5.57;54.55;95486.03;5007024;28;20238;-74
2024/01/27 10:50:11;;;;;;;1.53;1.37;;;;;;;5.50;54.72;95482.19;5011073;28;20245;-71
2024/01/27 10:52:43;;;;;;;1.67;1.20;;;;;;;5.56;54.36;95475.69;5027569;28;20222;-73
2024/01/27 10:55:10;;;;;;;3.20;1.27;;;;;;;5.61;54.31;95469.19;4997219;28;20230;-72
2024/01/27 10:57:37;;;;;;;1.20;1.10;;;;;;;5.57;54.91;95498.25;5012392;28;20286;-75
2024/01/27 11:00:06;;;;;;;1.77;1.40;;;;;;;5.51;55.22;95496.91;4999816;28;20227;-75
2024/01/27 11:02:33;;;;;;;2.60;1.20;;;;;;;5.68;54.29;95495.69;5010541;28;20276;-72
2024/01/27 11:05:03;;;;;;;1.77;1.43;;;;;;;5.70;54.72;95497.25;5011528;28;20194;-72
2024/01/27 11:07:31;;;;;;;1.40;1.27;;;;;;;5.57;55.08;95509.50;5012399;28;20222;-70
2024/01/27 11:09:57;;;;;;;1.30;1.10;;;;;;;5.44;55.25;95490.47;5010651;28;20276;-70
2024/01/27 11:12:23;;;;;;;2.80;1.60;;;;;;;5.45;55.50;95520.81;5028301;28;20238;-73
2024/01/27 11:14:51;;;;;;;3.77;1.40;;;;;;;5.26;56.02;95513.44;5012264;28;20337;-71
2024/01/27 11:17:17;;;;;;;1.67;1.37;;;;;;;5.20;56.59;95512.09;5011970;28;20198;-72
2024/01/27 11:19:45;;;;;;;1.70;1.60;;;;;;;5.22;56.63;95494.56;5010084;28;20195;-71
2024/01/27 11:22:25;;;;;;;1.53;1.43;;;;;;;5.12;57.06;95485.72;5005984;28;20242;-74
2024/01/27 11:24:51;;;;;;;1.90;1.30;;;;;;;5.19;56.72;95499.19;5004543;28;20305;-72
2024/01/27 11:27:17;;;;;;;1.80;1.50;;;;;;;5.31;56.97;95509.56;5010479;28;20263;-76
2024/01/27 11:29:51;;;;;;;1.90;1.80;;;;;;;5.27;56.70;95523.78;5008587;28;20313;-75
2024/01/27 11:32:17;;;;;;;2.23;1.70;;;;;;;5.23;57.11;95545.78;5025471;28;20191;-72
2024/01/27 11:34:44;;;;;;;3.00;1.83;;;;;;;5.08;57.23;95537.25;5015307;28;20218;-73
2024/01/27 11:37:14;;;;;;;2.53;1.60;;;;;;;5.06;57.85;95530.47;5010118;28;20266;-75